Time;durP1;ratioP1;P1;durP2;ratioP2;P2;SDS_P1;SDS_P2;PMS_P1;PMS_P2;Temp;Humidity;BMP_temperature;BMP_pressure;BME280_temperature;BME280_humidity;BME280_pressure;Samples;Min_cycle;Max_cycle;Signal;HPM_P1;HPM_P2
2021/05/08 00:00:23;;;;;;;3.10;2.80;;;6.70;1.00;;;;;;5134530;28;20448;-68
2021/05/08 00:02:50;;;;;;;4.50;4.10;;;6.70;1.00;;;;;;5134829;28;20485;-68
2021/05/08 00:05:17;;;;;;;3.87;3.47;;;6.60;1.00;;;;;;5134972;28;20452;-68
2021/05/08 00:07:44;;;;;;;4.00;3.20;;;6.70;1.00;;;;;;5134321;28;20456;-68
2021/05/08 00:10:12;;;;;;;4.30;3.20;;;6.60;1.00;;;;;;5135823;28;20448;-68
2021/05/08 00:12:38;;;;;;;5.43;3.53;;;6.60;1.00;;;;;;5137524;27;20498;-68
2021/05/08 00:15:06;;;;;;;3.47;3.17;;;6.60;1.00;;;;;;5134717;28;20532;-68
2021/05/08 00:17:33;;;;;;;3.87;3.20;;;6.60;1.00;;;;;;5134147;28;20461;-69
2021/05/08 00:19:59;;;;;;;4.10;3.70;;;6.60;1.00;;;;;;5134023;28;20452;-68
2021/05/08 00:22:26;;;;;;;3.50;3.20;;;6.60;1.00;;;;;;5135324;28;20451;-68
2021/05/08 00:24:52;;;;;;;4.17;3.30;;;6.60;1.00;;;;;;5134491;28;20463;-68
2021/05/08 00:27:18;;;;;;;4.27;3.33;;;6.60;1.00;;;;;;5135009;28;20516;-68
2021/05/08 00:29:44;;;;;;;4.80;3.27;;;6.50;1.00;;;;;;5134348;28;20536;-68
2021/05/08 00:32:11;;;;;;;7.30;3.93;;;6.50;1.00;;;;;;5133775;28;20458;-68
2021/05/08 00:34:38;;;;;;;5.20;3.53;;;6.50;1.00;;;;;;5134209;28;20472;-68
2021/05/08 00:37:06;;;;;;;5.07;3.90;;;6.50;1.00;;;;;;5133176;28;20904;-68
2021/05/08 00:39:34;;;;;;;3.87;3.47;;;6.50;1.00;;;;;;5133997;28;20456;-69
2021/05/08 00:42:00;;;;;;;5.00;4.53;;;6.40;1.00;;;;;;5134231;28;20488;-68
2021/05/08 00:44:29;;;;;;;12.93;10.40;;;6.40;1.00;;;;;;5133761;28;20445;-68
2021/05/08 00:46:56;;;;;;;30.37;19.50;;;6.40;1.00;;;;;;5133958;28;20467;-68
2021/05/08 00:49:25;;;;;;;45.70;27.73;;;6.40;1.00;;;;;;5134340;28;20460;-68
2021/05/08 00:51:53;;;;;;;32.73;23.30;;;6.40;1.00;;;;;;5134837;28;20440;-69
2021/05/08 00:54:19;;;;;;;17.47;12.37;;;6.30;1.00;;;;;;5133632;28;20484;-69
2021/05/08 00:56:46;;;;;;;13.37;9.50;;;6.30;1.00;;;;;;5133932;28;20856;-69
2021/05/08 00:59:12;;;;;;;7.33;6.27;;;6.30;1.00;;;;;;5133277;28;20593;-69
2021/05/08 01:01:40;;;;;;;5.03;4.50;;;6.30;1.00;;;;;;5135304;28;20455;-68
2021/05/08 01:04:06;;;;;;;3.90;3.50;;;6.30;38.50;;;;;;5134181;28;20448;-68
2021/05/08 01:06:33;;;;;;;5.17;4.10;;;6.30;99.90;;;;;;5134799;28;20520;-68
2021/05/08 01:09:01;;;;;;;4.40;4.00;;;6.30;99.90;;;;;;5133656;28;20449;-69
2021/05/08 01:11:28;;;;;;;4.30;3.90;;;6.30;99.90;;;;;;5133107;28;20436;-68
2021/05/08 01:13:55;;;;;;;5.17;4.50;;;6.30;99.90;;;;;;5133878;28;20445;-68
2021/05/08 01:16:22;;;;;;;10.10;4.60;;;6.20;99.90;;;;;;5134596;28;20472;-69
2021/05/08 01:18:51;;;;;;;5.00;3.70;;;6.20;99.90;;;;;;5134706;28;20496;-68
2021/05/08 01:21:20;;;;;;;4.70;4.17;;;6.20;99.90;;;;;;5134572;28;20512;-68
2021/05/08 01:23:46;;;;;;;5.20;3.73;;;6.20;99.90;;;;;;5137330;28;20524;-69
2021/05/08 01:26:13;;;;;;;6.13;4.00;;;6.20;99.90;;;;;;5136124;28;20452;-68
2021/05/08 01:28:39;;;;;;;5.70;4.80;;;6.20;99.90;;;;;;5134107;28;20467;-69
2021/05/08 01:31:07;;;;;;;7.90;4.33;;;6.10;99.90;;;;;;5133333;28;20967;-68
2021/05/08 01:33:33;;;;;;;4.80;4.40;;;6.10;99.90;;;;;;5133846;28;20452;-68
2021/05/08 01:36:00;;;;;;;4.83;4.30;;;6.10;99.90;;;;;;5133669;28;20478;-68
2021/05/08 01:38:27;;;;;;;5.47;4.10;;;6.10;99.90;;;;;;5134082;28;20477;-68
2021/05/08 01:40:59;;;;;;;4.77;3.67;;;6.10;99.90;;;;;;5133174;28;20448;-68
2021/05/08 01:43:26;;;;;;;5.00;4.50;;;6.10;99.90;;;;;;5134178;28;20491;-68
2021/05/08 01:45:52;;;;;;;4.40;4.00;;;6.00;99.90;;;;;;5133727;28;20447;-69
2021/05/08 01:48:19;;;;;;;7.47;4.10;;;6.00;99.90;;;;;;5131902;28;20445;-68
2021/05/08 01:50:45;;;;;;;4.70;4.30;;;6.00;99.90;;;;;;5133785;28;20452;-68
2021/05/08 01:53:12;;;;;;;5.13;4.70;;;6.00;99.90;;;;;;5132846;28;20472;-68
2021/05/08 01:55:40;;;;;;;6.00;4.30;;;6.00;99.90;;;;;;5133101;28;20488;-68
2021/05/08 01:58:07;;;;;;;6.73;4.87;;;6.00;99.90;;;;;;5133182;28;20463;-68
2021/05/08 02:00:38;;;;;;;5.23;4.10;;;6.00;99.90;;;;;;5133809;28;20448;-68
2021/05/08 02:03:06;;;;;;;6.93;4.30;;;6.10;99.90;;;;;;5133806;28;20436;-68
2021/05/08 02:05:33;;;;;;;8.07;5.17;;;6.10;99.90;;;;;;5133037;28;20481;-69
2021/05/08 02:08:02;;;;;;;5.30;4.20;;;6.00;99.90;;;;;;5133481;28;20453;-68
2021/05/08 02:10:29;;;;;;;4.43;4.03;;;6.00;99.90;;;;;;5133276;28;20455;-68
2021/05/08 02:12:57;;;;;;;5.20;4.37;;;6.00;99.90;;;;;;5132565;28;20540;-68
2021/05/08 02:15:23;;;;;;;5.43;4.20;;;6.00;99.90;;;;;;5133302;28;20468;-69
2021/05/08 02:17:49;;;;;;;5.17;4.60;;;6.00;99.90;;;;;;5132886;28;20455;-68
2021/05/08 02:20:20;;;;;;;9.83;4.73;;;6.00;99.90;;;;;;5132552;28;20449;-68
2021/05/08 02:22:47;;;;;;;4.00;3.70;;;5.90;99.90;;;;;;5132731;28;20512;-68
2021/05/08 02:25:14;;;;;;;11.60;4.47;;;5.90;99.90;;;;;;5132790;28;20473;-69
2021/05/08 02:27:41;;;;;;;5.60;4.73;;;5.90;99.90;;;;;;5132676;28;20453;-68
2021/05/08 02:30:10;;;;;;;5.23;4.73;;;5.90;99.90;;;;;;5132287;28;20490;-68
2021/05/08 02:32:37;;;;;;;5.63;4.50;;;5.90;99.90;;;;;;5134028;28;20452;-68
2021/05/08 02:35:05;;;;;;;5.03;4.53;;;5.80;99.90;;;;;;5137115;28;20476;-68
2021/05/08 02:37:31;;;;;;;4.60;3.97;;;5.80;99.90;;;;;;5136458;28;20468;-68
2021/05/08 02:39:58;;;;;;;5.60;4.97;;;5.80;99.90;;;;;;5133814;28;20456;-68
2021/05/08 02:42:26;;;;;;;6.00;4.50;;;5.80;99.90;;;;;;5132708;28;20519;-68
2021/05/08 02:44:53;;;;;;;4.27;3.87;;;5.70;99.90;;;;;;5132132;28;20455;-67
2021/05/08 02:47:20;;;;;;;5.20;4.60;;;5.70;99.90;;;;;;5133541;28;20445;-68
2021/05/08 02:49:46;;;;;;;6.13;4.53;;;5.70;99.90;;;;;;5133056;28;20440;-67
2021/05/08 02:52:12;;;;;;;4.77;4.00;;;5.70;99.90;;;;;;5133011;28;20467;-68
2021/05/08 02:54:39;;;;;;;5.20;4.37;;;5.70;99.90;;;;;;5132738;28;20485;-68
2021/05/08 02:57:06;;;;;;;6.10;4.13;;;5.70;99.90;;;;;;5133165;28;20436;-68
2021/05/08 02:59:33;;;;;;;4.80;4.30;;;5.60;99.90;;;;;;5133227;28;20456;-69
2021/05/08 03:02:00;;;;;;;5.07;4.50;;;5.70;99.90;;;;;;5137296;28;20446;-67
2021/05/08 03:04:27;;;;;;;5.60;4.20;;;5.60;99.90;;;;;;5137609;28;20462;-68
2021/05/08 03:06:54;;;;;;;7.27;4.63;;;5.60;99.90;;;;;;5137220;28;20930;-67
2021/05/08 03:09:20;;;;;;;4.30;3.90;;;5.60;99.90;;;;;;5137123;28;20531;-67
2021/05/08 03:11:46;;;;;;;5.60;4.73;;;5.60;99.90;;;;;;5136723;28;20461;-68
2021/05/08 03:14:15;;;;;;;4.60;3.90;;;5.60;99.90;;;;;;5137545;28;20436;-68
2021/05/08 03:16:42;;;;;;;4.77;4.37;;;5.60;99.90;;;;;;5137154;28;20483;-68
2021/05/08 03:19:09;;;;;;;6.80;4.53;;;5.60;99.90;;;;;;5137725;28;20456;-68
2021/05/08 03:21:36;;;;;;;4.80;4.30;;;5.60;99.90;;;;;;5137176;28;20548;-68
2021/05/08 03:24:04;;;;;;;5.07;4.63;;;5.60;99.90;;;;;;5137377;28;20483;-69
2021/05/08 03:26:31;;;;;;;7.00;4.50;;;5.60;99.90;;;;;;5137346;28;20451;-68
2021/05/08 03:28:57;;;;;;;5.23;4.70;;;5.60;99.90;;;;;;5137286;28;20858;-68
2021/05/08 03:31:23;;;;;;;5.13;3.90;;;5.60;99.90;;;;;;5137326;28;20548;-67
2021/05/08 03:33:52;;;;;;;7.30;4.63;;;5.60;99.90;;;;;;5137100;28;20447;-68
2021/05/08 03:36:18;;;;;;;4.53;3.87;;;5.50;99.90;;;;;;5138546;28;20492;-67
2021/05/08 03:38:45;;;;;;;4.83;4.40;;;5.50;99.90;;;;;;5136461;28;20511;-67
2021/05/08 03:41:14;;;;;;;5.10;4.60;;;5.60;99.90;;;;;;5136773;28;20507;-67
2021/05/08 03:43:40;;;;;;;5.10;4.60;;;5.60;99.90;;;;;;5137060;28;20448;-69
2021/05/08 03:46:07;;;;;;;6.07;4.70;;;5.60;99.90;;;;;;5136706;28;20464;-67
2021/05/08 03:48:33;;;;;;;7.63;4.00;;;5.60;99.90;;;;;;5136475;28;20441;-69
2021/05/08 03:50:59;;;;;;;4.90;4.30;;;5.60;99.90;;;;;;5137023;27;20487;-67
2021/05/08 03:53:26;;;;;;;5.30;4.60;;;5.60;99.90;;;;;;5136162;28;20461;-67
2021/05/08 03:55:53;;;;;;;4.70;4.30;;;5.70;99.90;;;;;;5135797;28;20472;-68
2021/05/08 03:58:23;;;;;;;4.43;3.80;;;5.70;99.90;;;;;;5136458;28;20472;-67
2021/05/08 04:00:49;;;;;;;8.73;4.90;;;5.70;99.90;;;;;;5136460;28;20485;-67
2021/05/08 04:03:15;;;;;;;3.70;3.40;;;5.70;99.90;;;;;;5136461;28;20520;-68
2021/05/08 04:05:42;;;;;;;8.20;4.00;;;5.70;99.90;;;;;;5136552;28;20463;-67
2021/05/08 04:08:08;;;;;;;4.87;4.37;;;5.70;99.90;;;;;;5136710;27;20456;-67
2021/05/08 04:10:34;;;;;;;4.20;3.90;;;5.80;99.90;;;;;;5136676;28;20448;-68
2021/05/08 04:13:01;;;;;;;5.10;4.50;;;5.80;99.90;;;;;;5135308;28;20993;-68
2021/05/08 04:15:28;;;;;;;4.47;3.80;;;5.80;99.90;;;;;;5135380;28;20499;-68
2021/05/08 04:17:54;;;;;;;5.60;4.27;;;5.80;99.90;;;;;;5135369;28;20516;-67
2021/05/08 04:20:20;;;;;;;4.00;3.70;;;5.80;99.90;;;;;;5136632;28;20452;-67
2021/05/08 04:22:47;;;;;;;8.27;4.47;;;5.80;99.90;;;;;;5136405;28;20447;-68
2021/05/08 04:25:13;;;;;;;4.40;4.00;;;5.90;99.90;;;;;;5136145;28;20448;-67
2021/05/08 04:27:40;;;;;;;4.47;4.07;;;5.90;99.90;;;;;;5136530;28;20456;-67
2021/05/08 04:30:09;;;;;;;6.00;4.37;;;6.00;99.90;;;;;;5136406;28;20532;-67
2021/05/08 04:32:35;;;;;;;5.43;4.53;;;6.00;99.90;;;;;;5136474;28;20437;-68
2021/05/08 04:35:01;;;;;;;5.63;4.20;;;6.00;99.90;;;;;;5135976;28;20477;-68
2021/05/08 04:37:28;;;;;;;4.27;3.87;;;6.10;99.90;;;;;;5136788;28;20448;-68
2021/05/08 04:39:55;;;;;;;5.43;4.23;;;6.10;99.90;;;;;;5135833;28;20458;-68
2021/05/08 04:42:22;;;;;;;4.80;4.37;;;6.10;99.90;;;;;;5135741;28;20534;-68
2021/05/08 04:44:48;;;;;;;6.97;4.10;;;6.10;99.90;;;;;;5135662;28;20468;-68
2021/05/08 04:47:16;;;;;;;5.00;4.23;;;6.20;99.90;;;;;;5136107;28;20928;-70
2021/05/08 04:49:42;;;;;;;7.13;4.30;;;6.30;99.90;;;;;;5135343;28;20458;-68
2021/05/08 04:52:09;;;;;;;7.20;4.50;;;6.30;99.90;;;;;;5135570;28;20511;-68
2021/05/08 04:54:35;;;;;;;4.20;3.80;;;6.40;99.90;;;;;;5135652;28;20491;-68
2021/05/08 04:57:02;;;;;;;4.93;4.40;;;6.40;99.90;;;;;;5135223;28;20472;-68
2021/05/08 04:59:28;;;;;;;5.17;3.50;;;6.50;99.90;;;;;;5135869;28;20448;-68
2021/05/08 05:01:54;;;;;;;5.63;4.03;;;6.60;99.90;;;;;;5135155;28;20460;-67
2021/05/08 05:04:21;;;;;;;4.20;3.90;;;6.60;99.90;;;;;;5135925;28;20451;-68
2021/05/08 05:06:48;;;;;;;5.93;3.30;;;6.70;99.90;;;;;;5135682;28;20445;-68
2021/05/08 05:09:14;;;;;;;5.60;3.87;;;6.70;99.90;;;;;;5135431;28;20830;-68
2021/05/08 05:11:49;;;;;;;5.30;3.77;;;6.80;99.90;;;;;;5135259;28;20452;-68
2021/05/08 05:14:15;;;;;;;5.07;3.67;;;6.90;99.90;;;;;;5135158;28;20556;-69
2021/05/08 05:16:41;;;;;;;4.87;3.97;;;6.90;99.90;;;;;;5135061;28;20482;-67
2021/05/08 05:19:08;;;;;;;4.80;3.37;;;7.00;99.90;;;;;;5134645;28;20499;-67
2021/05/08 05:21:36;;;;;;;5.57;3.60;;;7.00;99.90;;;;;;5135746;28;20452;-68
2021/05/08 05:24:02;;;;;;;4.80;3.50;;;7.00;99.90;;;;;;5135476;28;20480;-68
2021/05/08 05:26:28;;;;;;;6.60;3.60;;;7.00;99.90;;;;;;5136103;28;20457;-67
2021/05/08 05:28:55;;;;;;;3.90;3.60;;;6.90;99.90;;;;;;5135413;28;20455;-68
2021/05/08 05:31:21;;;;;;;4.37;3.60;;;6.90;99.90;;;;;;5135001;28;20469;-67
2021/05/08 05:33:47;;;;;;;10.50;3.80;;;6.90;99.90;;;;;;5135627;28;20467;-68
2021/05/08 05:36:14;;;;;;;5.03;3.50;;;6.90;99.90;;;;;;5134928;28;20475;-68
2021/05/08 05:38:42;;;;;;;4.50;3.30;;;7.00;99.90;;;;;;5135156;28;20441;-68
2021/05/08 05:41:09;;;;;;;7.60;3.60;;;7.00;99.90;;;;;;5134497;28;20529;-67
2021/05/08 05:43:35;;;;;;;7.40;3.83;;;7.10;99.90;;;;;;5134835;28;20516;-67
2021/05/08 05:46:01;;;;;;;5.30;3.40;;;7.10;99.90;;;;;;5135063;28;20463;-67
2021/05/08 05:48:29;;;;;;;4.73;3.50;;;7.20;99.90;;;;;;5134182;28;20456;-67
2021/05/08 05:50:55;;;;;;;5.73;3.83;;;7.30;99.90;;;;;;5134484;28;20520;-67
2021/05/08 05:53:24;;;;;;;6.23;3.43;;;7.40;99.90;;;;;;5134810;28;20449;-67
2021/05/08 05:55:52;;;;;;;10.23;3.53;;;7.50;99.90;;;;;;5135220;28;20507;-67
2021/05/08 05:58:18;;;;;;;8.77;3.07;;;7.60;99.90;;;;;;5133735;28;20487;-68
2021/05/08 06:00:44;;;;;;;7.63;3.93;;;7.80;99.90;;;;;;5134332;28;20524;-67
2021/05/08 06:03:10;;;;;;;6.40;3.53;;;7.90;99.90;;;;;;5133906;28;20467;-67
2021/05/08 06:05:36;;;;;;;3.20;2.83;;;7.90;99.90;;;;;;5133633;28;20444;-67
2021/05/08 06:08:03;;;;;;;7.03;3.20;;;8.00;99.90;;;;;;5132809;28;20452;-67
2021/05/08 06:10:29;;;;;;;7.80;3.20;;;8.10;99.90;;;;;;5132771;28;20449;-68
2021/05/08 06:12:56;;;;;;;4.53;3.57;;;8.20;99.90;;;;;;5132357;28;20460;-67
2021/05/08 06:15:23;;;;;;;4.93;2.90;;;8.30;99.90;;;;;;5133458;28;20493;-67
2021/05/08 06:17:50;;;;;;;10.00;3.07;;;8.30;99.90;;;;;;5132945;28;20520;-68
2021/05/08 06:20:16;;;;;;;9.17;3.00;;;8.40;99.90;;;;;;5133096;28;20449;-67
2021/05/08 06:22:42;;;;;;;8.57;3.30;;;8.50;99.90;;;;;;5133355;28;20500;-67
2021/05/08 06:25:10;;;;;;;5.10;2.80;;;8.50;99.90;;;;;;5133256;28;20512;-67
2021/05/08 06:27:36;;;;;;;5.93;2.57;;;8.60;99.90;;;;;;5133489;28;20881;-67
2021/05/08 06:30:04;;;;;;;6.10;3.27;;;8.60;99.90;;;;;;5130074;28;20558;-67
2021/05/08 06:32:31;;;;;;;6.13;2.70;;;8.70;99.90;;;;;;5119935;28;20443;-66
2021/05/08 06:34:57;;;;;;;6.23;2.90;;;8.70;99.90;;;;;;5116331;28;20463;-66
2021/05/08 06:37:23;;;;;;;6.90;2.97;;;8.70;99.90;;;;;;5117001;28;20460;-66
2021/05/08 06:39:50;;;;;;;7.87;3.00;;;8.70;99.90;;;;;;5116922;28;20827;-66
2021/05/08 06:42:16;;;;;;;4.03;2.27;;;8.70;99.90;;;;;;5116467;28;20467;-67
2021/05/08 06:44:42;;;;;;;4.60;2.67;;;8.70;99.90;;;;;;5116954;28;20456;-65
2021/05/08 06:47:14;;;;;;;4.57;2.67;;;8.70;99.90;;;;;;5116751;28;20448;-65
2021/05/08 06:49:40;;;;;;;5.50;2.80;;;8.70;99.90;;;;;;5116658;28;20436;-65
2021/05/08 06:52:07;;;;;;;7.73;3.03;;;8.70;99.90;;;;;;5117022;28;20467;-65
2021/05/08 06:54:33;;;;;;;7.93;3.07;;;8.70;99.90;;;;;;5116209;28;20939;-64
2021/05/08 06:56:59;;;;;;;6.90;2.73;;;8.60;99.90;;;;;;5117428;28;20626;-65
2021/05/08 06:59:26;;;;;;;5.33;2.53;;;8.60;99.90;;;;;;5116504;28;20457;-65
2021/05/08 07:01:52;;;;;;;5.73;3.03;;;8.70;99.90;;;;;;5116641;28;20453;-66
2021/05/08 07:04:22;;;;;;;8.83;2.90;;;8.70;99.90;;;;;;5116546;28;20467;-66
2021/05/08 07:06:48;;;;;;;4.07;2.53;;;8.80;99.90;;;;;;5116333;28;20508;-66
2021/05/08 07:09:17;;;;;;;5.10;2.87;;;8.80;99.90;;;;;;5116961;28;20464;-65
2021/05/08 07:11:46;;;;;;;5.27;2.20;;;8.90;99.90;;;;;;5116506;28;20789;-67
2021/05/08 07:14:12;;;;;;;3.07;2.47;;;8.90;99.90;;;;;;5116311;28;20815;-67
2021/05/08 07:16:38;;;;;;;6.40;2.53;;;9.00;99.90;;;;;;5116187;28;20472;-66
2021/05/08 07:19:04;;;;;;;3.10;2.30;;;9.00;99.90;;;;;;5116387;28;20452;-66
2021/05/08 07:21:31;;;;;;;8.03;2.60;;;9.10;99.90;;;;;;5115948;28;20457;-66
2021/05/08 07:23:57;;;;;;;4.50;2.70;;;9.10;99.90;;;;;;5116295;28;20456;-66
2021/05/08 07:26:24;;;;;;;5.43;2.13;;;9.20;99.90;;;;;;5115683;28;20452;-67
2021/05/08 07:28:50;;;;;;;3.30;2.40;;;9.20;99.90;;;;;;5116400;28;20564;-66
2021/05/08 07:31:16;;;;;;;3.00;1.90;;;9.30;99.90;;;;;;5115960;28;20823;-65
2021/05/08 07:33:42;;;;;;;3.60;2.03;;;9.30;99.90;;;;;;5116044;28;20517;-66
2021/05/08 07:36:09;;;;;;;4.03;2.10;;;9.30;99.90;;;;;;5116464;28;20575;-66
2021/05/08 07:38:36;;;;;;;5.47;2.10;;;9.20;99.90;;;;;;5116749;28;20513;-65
2021/05/08 07:41:04;;;;;;;7.97;2.23;;;9.20;99.90;;;;;;5117347;28;20456;-65
2021/05/08 07:43:30;;;;;;;2.90;1.90;;;9.20;99.90;;;;;;5115926;28;20452;-66
2021/05/08 07:45:59;;;;;;;5.20;2.13;;;9.20;99.90;;;;;;5117246;28;20535;-65
2021/05/08 07:48:27;;;;;;;3.57;2.23;;;9.20;99.90;;;;;;5121125;28;20463;-66
2021/05/08 07:50:53;;;;;;;4.67;1.90;;;9.30;99.90;;;;;;5119921;28;20452;-65
2021/05/08 07:53:19;;;;;;;5.23;2.83;;;9.30;99.90;;;;;;5120324;28;20925;-65
2021/05/08 07:55:47;;;;;;;5.93;2.47;;;9.40;99.90;;;;;;5120970;28;20476;-65
2021/05/08 07:58:13;;;;;;;4.13;2.73;;;9.40;99.90;;;;;;5120949;28;20466;-65
2021/05/08 08:00:40;;;;;;;3.87;2.50;;;9.50;99.90;;;;;;5121168;28;20912;-67
2021/05/08 08:03:06;;;;;;;6.23;3.30;;;9.60;99.90;;;;;;5121586;28;20483;-67
2021/05/08 08:05:32;;;;;;;5.50;2.60;;;9.60;99.90;;;;;;5120621;28;20452;-67
2021/05/08 08:07:59;;;;;;;3.83;2.87;;;9.60;99.90;;;;;;5119021;27;20464;-66
2021/05/08 08:10:25;;;;;;;4.73;2.37;;;9.70;99.90;;;;;;5119643;28;20801;-68
2021/05/08 08:12:52;;;;;;;5.97;2.60;;;9.80;99.90;;;;;;5119301;28;20524;-66
2021/05/08 08:15:18;;;;;;;3.80;3.07;;;9.80;99.90;;;;;;5119602;28;20480;-67
2021/05/08 08:17:46;;;;;;;5.07;3.07;;;9.90;99.90;;;;;;5119508;28;20452;-66
2021/05/08 08:20:14;;;;;;;4.33;3.00;;;9.90;99.90;;;;;;5119297;28;20453;-67
2021/05/08 08:22:42;;;;;;;5.03;3.30;;;9.90;99.90;;;;;;5119386;28;20456;-65
2021/05/08 08:25:09;;;;;;;7.93;3.90;;;10.00;99.90;;;;;;5118697;28;20453;-66
2021/05/08 08:27:36;;;;;;;3.00;2.80;;;10.00;99.90;;;;;;5118455;28;20452;-66
2021/05/08 08:30:05;;;;;;;8.00;3.40;;;10.10;99.90;;;;;;5118954;28;20456;-66
2021/05/08 08:32:31;;;;;;;4.50;2.90;;;10.10;99.90;;;;;;5118684;28;20545;-66
2021/05/08 08:34:57;;;;;;;4.70;3.00;;;10.30;99.90;;;;;;5119249;28;20483;-66
2021/05/08 08:37:24;;;;;;;5.30;2.90;;;10.50;99.90;;;;;;5119133;28;20565;-67
2021/05/08 08:39:50;;;;;;;8.40;5.20;;;10.50;99.90;;;;;;5119204;27;20780;-65
2021/05/08 08:42:17;;;;;;;3.90;3.30;;;10.50;99.90;;;;;;5119011;28;20472;-66
2021/05/08 08:44:44;;;;;;;4.93;2.53;;;10.50;99.90;;;;;;5119331;28;20460;-65
2021/05/08 08:49:58;;;;;;;4.40;3.10;;;10.70;99.90;;;;;;5119443;28;20515;-65
2021/05/08 08:52:25;;;;;;;3.70;3.40;;;10.70;99.90;;;;;;5118898;28;20437;-66
2021/05/08 08:54:52;;;;;;;4.90;4.40;;;10.70;99.90;;;;;;5118874;28;20533;-65
2021/05/08 08:57:24;;;;;;;5.83;3.97;;;10.70;99.90;;;;;;5118682;28;20483;-65
2021/05/08 08:59:51;;;;;;;5.67;3.00;;;10.70;99.90;;;;;;5119220;28;20436;-66
2021/05/08 09:02:18;;;;;;;2.63;2.33;;;10.80;99.90;;;;;;5119157;28;20453;-67
2021/05/08 09:04:44;;;;;;;3.70;2.10;;;10.90;99.90;;;;;;5119229;28;20463;-64
2021/05/08 09:07:12;;;;;;;6.07;2.67;;;10.90;99.90;;;;;;5118856;28;20453;-68
2021/05/08 09:09:39;;;;;;;3.57;2.47;;;11.00;99.90;;;;;;5119691;28;20457;-65
2021/05/08 09:12:13;;;;;;;4.87;2.17;;;11.10;99.90;;;;;;5118727;28;20923;-64
2021/05/08 09:14:39;;;;;;;4.00;2.63;;;11.10;99.90;;;;;;5118706;28;20433;-65
2021/05/08 09:17:09;;;;;;;3.27;2.47;;;11.10;99.90;;;;;;5118273;28;20476;-64
2021/05/08 09:19:37;;;;;;;3.77;2.57;;;11.20;99.90;;;;;;5118615;28;20460;-66
2021/05/08 09:22:28;;;;;;;2.87;2.53;;;11.20;99.90;;;;;;5118402;28;20893;-65
2021/05/08 09:25:03;;;;;;;2.97;2.70;;;11.20;99.90;;;;;;5118197;28;20444;-65
2021/05/08 09:27:41;;;;;;;3.47;2.33;;;11.20;99.90;;;;;;5118259;28;20447;-65
2021/05/08 09:30:20;;;;;;;6.10;2.33;;;11.30;99.90;;;;;;5117586;28;20805;-66
2021/05/08 09:32:49;;;;;;;3.73;2.40;;;11.40;99.90;;;;;;5118280;27;20617;-68
2021/05/08 09:35:18;;;;;;;4.70;2.70;;;11.40;99.90;;;;;;5117803;28;20482;-66
2021/05/08 09:37:45;;;;;;;3.07;2.43;;;11.60;99.90;;;;;;5118339;28;20452;-65
2021/05/08 09:40:20;;;;;;;2.90;2.30;;;11.70;99.90;;;;;;5118407;28;20456;-65
2021/05/08 09:42:49;;;;;;;2.93;2.60;;;11.70;99.90;;;;;;5118482;28;20500;-65
2021/05/08 09:45:16;;;;;;;3.60;2.03;;;11.80;99.90;;;;;;5117979;28;20935;-65
2021/05/08 09:47:43;;;;;;;2.70;2.40;;;11.90;99.90;;;;;;5117790;28;20529;-65
2021/05/08 09:50:10;;;;;;;3.57;2.00;;;12.00;99.90;;;;;;5117456;28;20931;-66
2021/05/08 09:52:45;;;;;;;3.60;2.10;;;12.20;99.90;;;;;;5117460;28;20471;-66
2021/05/08 09:55:12;;;;;;;5.77;2.03;;;12.30;99.90;;;;;;5118247;28;20528;-65
2021/05/08 09:57:39;;;;;;;3.23;2.40;;;12.40;99.90;;;;;;5118540;28;20460;-67
2021/05/08 10:00:29;;;;;;;2.80;2.40;;;12.40;99.90;;;;;;5117962;28;20461;-68
2021/05/08 10:03:10;;;;;;;4.60;2.20;;;12.40;99.90;;;;;;5117718;28;20460;-65
2021/05/08 10:05:36;;;;;;;3.60;2.70;;;12.40;99.90;;;;;;5117169;28;20443;-66
2021/05/08 10:08:04;;;;;;;5.50;2.80;;;12.40;99.90;;;;;;5117124;28;20548;-66
2021/05/08 10:10:31;;;;;;;4.73;2.10;;;12.40;99.90;;;;;;5116394;28;20453;-67
2021/05/08 10:12:58;;;;;;;2.90;2.60;;;12.40;99.90;;;;;;5117032;28;20452;-66
2021/05/08 10:15:25;;;;;;;2.70;2.40;;;12.30;99.90;;;;;;5117292;28;20799;-66
2021/05/08 10:17:52;;;;;;;5.20;2.60;;;12.30;99.90;;;;;;5117188;28;20452;-65
2021/05/08 10:20:21;;;;;;;3.60;2.47;;;12.40;99.90;;;;;;5116891;28;20463;-65
2021/05/08 10:22:50;;;;;;;2.93;2.57;;;12.50;99.90;;;;;;5117113;28;20965;-65
2021/05/08 10:25:17;;;;;;;2.93;2.70;;;12.60;99.90;;;;;;5117047;28;20467;-65
2021/05/08 10:27:44;;;;;;;3.87;2.53;;;12.70;99.90;;;;;;5116832;28;20464;-65
2021/05/08 10:30:13;;;;;;;3.23;2.10;;;12.70;99.90;;;;;;5116567;28;20480;-66
2021/05/08 10:32:41;;;;;;;3.97;2.27;;;12.70;99.90;;;;;;5116112;28;20885;-64
2021/05/08 10:35:10;;;;;;;3.40;3.10;;;12.80;99.90;;;;;;5116736;28;20456;-65
2021/05/08 10:37:37;;;;;;;3.80;2.63;;;12.70;99.90;;;;;;5116389;28;20962;-66
2021/05/08 10:40:15;;;;;;;3.40;2.50;;;12.90;99.90;;;;;;5116600;28;20463;-67
2021/05/08 10:42:43;;;;;;;5.07;2.93;;;13.10;99.90;;;;;;5116643;28;20830;-67
2021/05/08 10:45:31;;;;;;;3.87;3.17;;;13.30;99.90;;;;;;5116592;28;20463;-66
2021/05/08 10:48:11;;;;;;;7.37;2.97;;;13.40;99.90;;;;;;5116143;28;20885;-67
2021/05/08 10:50:48;;;;;;;3.50;2.67;;;13.50;99.90;;;;;;5116756;28;20512;-69
2021/05/08 10:53:16;;;;;;;4.17;3.30;;;13.60;99.90;;;;;;5116729;28;20447;-64
2021/05/08 10:55:45;;;;;;;3.67;3.17;;;13.60;99.90;;;;;;5116480;28;20480;-65
2021/05/08 10:58:31;;;;;;;6.13;2.90;;;13.70;99.90;;;;;;5116371;28;20505;-66
2021/05/08 11:01:00;;;;;;;4.27;3.17;;;13.70;99.90;;;;;;5116402;28;20488;-66
2021/05/08 11:03:27;;;;;;;6.77;3.50;;;13.80;99.90;;;;;;5116002;28;20456;-65
2021/05/08 11:05:55;;;;;;;4.33;3.17;;;13.80;99.90;;;;;;5117300;28;20449;-65
2021/05/08 11:08:49;;;;;;;3.70;3.20;;;13.70;99.90;;;;;;5116259;28;20469;-65
2021/05/08 11:11:19;;;;;;;3.53;2.90;;;13.70;99.90;;;;;;5080523;28;20452;-65
2021/05/08 11:13:56;;;;;;;4.50;2.67;;;13.70;99.90;;;;;;5116174;28;20459;-65
2021/05/08 11:16:25;;;;;;;3.23;2.90;;;13.80;99.90;;;;;;5117240;28;20464;-64
2021/05/08 11:18:53;;;;;;;5.70;3.10;;;14.20;99.90;;;;;;5116732;28;20467;-65
2021/05/08 11:21:49;;;;;;;3.57;2.50;;;14.60;99.90;;;;;;5118986;28;20444;-65
2021/05/08 11:24:38;;;;;;;2.80;2.60;;;15.60;99.90;;;;;;5122531;28;20442;-64
2021/05/08 11:27:21;;;;;;;3.13;2.07;;;16.70;1.00;;;;;;5120538;28;20429;-65
2021/05/08 11:29:48;;;;;;;2.57;2.37;;;17.40;1.00;;;;;;5120025;28;20926;-66
2021/05/08 11:32:17;;;;;;;2.40;2.20;;;17.70;1.00;;;;;;5119818;28;20456;-65
2021/05/08 11:34:44;;;;;;;2.80;2.60;;;17.90;1.00;;;;;;5120407;28;20770;-65
2021/05/08 11:37:13;;;;;;;3.00;2.50;;;17.90;1.00;;;;;;5120169;28;20480;-66
2021/05/08 11:39:41;;;;;;;2.80;2.50;;;17.60;1.00;;;;;;5120236;28;20464;-66
2021/05/08 11:42:12;;;;;;;3.83;2.93;;;17.30;1.00;;;;;;5120241;28;20452;-66
2021/05/08 11:44:40;;;;;;;2.93;2.20;;;17.10;1.00;;;;;;5120056;28;20444;-66
2021/05/08 11:47:27;;;;;;;4.23;3.20;;;17.10;1.00;;;;;;5120586;28;20449;-65
2021/05/08 11:49:58;;;;;;;2.87;2.67;;;17.20;1.00;;;;;;5120934;28;20504;-66
2021/05/08 11:52:33;;;;;;;3.00;2.70;;;17.60;1.00;;;;;;5119629;28;20455;-64
2021/05/08 11:54:59;;;;;;;2.70;2.47;;;18.50;1.00;;;;;;5119492;28;20810;-66
2021/05/08 11:57:26;;;;;;;2.10;1.90;;;19.20;1.00;;;;;;5120023;28;20484;-65
2021/05/08 11:59:53;;;;;;;2.70;2.03;;;19.60;1.00;;;;;;5120314;28;20543;-66
2021/05/08 12:02:21;;;;;;;2.70;2.10;;;19.50;1.00;;;;;;5120117;28;20513;-66
2021/05/08 12:04:50;;;;;;;3.63;2.63;;;19.70;1.00;;;;;;5121569;28;20520;-66
2021/05/08 12:07:24;;;;;;;5.70;2.73;;;19.50;1.00;;;;;;5121244;28;20486;-65
2021/05/08 12:09:51;;;;;;;2.70;2.50;;;19.10;1.00;;;;;;5120730;28;20462;-66
2021/05/08 12:12:17;;;;;;;2.20;2.00;;;18.80;1.00;;;;;;5120493;28;20563;-66
2021/05/08 12:14:45;;;;;;;2.63;2.30;;;18.60;1.00;;;;;;5121992;28;20456;-65
2021/05/08 12:17:12;;;;;;;2.40;2.20;;;18.50;1.00;;;;;;5120325;28;20476;-65
2021/05/08 12:19:44;;;;;;;2.70;2.40;;;18.70;1.00;;;;;;5119790;28;20523;-65
2021/05/08 12:22:11;;;;;;;2.67;2.47;;;18.80;1.00;;;;;;5120193;28;20847;-66
2021/05/08 12:24:38;;;;;;;3.43;3.13;;;19.00;1.00;;;;;;5119213;28;20452;-66
2021/05/08 12:27:05;;;;;;;4.40;2.40;;;19.10;1.00;;;;;;5118708;28;20520;-65
2021/05/08 12:29:53;;;;;;;3.00;2.00;;;19.40;1.00;;;;;;5118713;28;20755;-65
2021/05/08 12:32:19;;;;;;;3.87;2.00;;;20.00;1.00;;;;;;5117596;28;20834;-66
2021/05/08 12:34:53;;;;;;;4.43;2.67;;;20.20;1.00;;;;;;5118382;28;20460;-65
2021/05/08 12:37:20;;;;;;;2.30;2.10;;;20.50;1.00;;;;;;5117971;28;20509;-65
2021/05/08 12:39:47;;;;;;;3.20;2.73;;;20.30;1.00;;;;;;5118255;28;20456;-66
2021/05/08 12:42:14;;;;;;;3.63;2.60;;;20.20;1.00;;;;;;5118270;28;20452;-66
2021/05/08 12:44:45;;;;;;;3.03;2.80;;;19.60;1.00;;;;;;5117925;28;20457;-65
2021/05/08 12:47:18;;;;;;;3.37;2.83;;;19.10;1.00;;;;;;5118064;28;20488;-66
2021/05/08 12:50:06;;;;;;;2.70;2.50;;;18.80;1.00;;;;;;5118589;28;20830;-65
2021/05/08 12:52:32;;;;;;;4.00;3.70;;;18.30;1.00;;;;;;5118476;28;20492;-66
2021/05/08 12:54:58;;;;;;;3.23;2.50;;;17.70;1.00;;;;;;5117955;28;20924;-65
2021/05/08 12:57:27;;;;;;;2.77;2.57;;;17.20;1.00;;;;;;5118426;28;20783;-65
2021/05/08 13:00:00;;;;;;;2.90;2.33;;;16.90;1.00;;;;;;5119116;28;20471;-65
2021/05/08 13:02:29;;;;;;;4.40;3.40;;;17.00;1.00;;;;;;5119061;28;20456;-65